createdAt,value
2019-05-10T00:00:55.550Z,15.2
2019-05-10T00:01:55.676Z,15
2019-05-10T00:02:55.788Z,14.1
2019-05-10T00:03:55.857Z,15
2019-05-10T00:04:56.029Z,15.2
2019-05-10T00:05:55.932Z,15
2019-05-10T00:06:56.019Z,14.7
2019-05-10T00:07:56.130Z,14.8
2019-05-10T00:08:56.251Z,14.5
2019-05-10T00:09:56.386Z,14.4
2019-05-10T00:10:56.464Z,14.3
2019-05-10T00:11:56.572Z,14.5
2019-05-10T00:12:56.693Z,14
2019-05-10T00:13:56.775Z,13.9
2019-05-10T00:14:56.907Z,13.8
2019-05-10T00:15:56.984Z,14
2019-05-10T00:16:57.086Z,12.2
2019-05-10T00:17:57.207Z,12.3
2019-05-10T00:18:57.297Z,12.3
2019-05-10T00:19:57.431Z,11.5
2019-05-10T00:20:57.503Z,11.9
2019-05-10T00:21:57.581Z,12.1
2019-05-10T00:22:57.672Z,11.3
2019-05-10T00:23:57.797Z,11.6
2019-05-10T00:25:04.153Z,11.7
2019-05-10T00:25:58.012Z,11.2
2019-05-10T00:26:58.181Z,11.2
2019-05-10T00:27:58.109Z,11
2019-05-10T00:28:58.244Z,10.7
2019-05-10T00:29:58.315Z,10.4
2019-05-10T00:30:58.444Z,10.4
2019-05-10T00:31:58.608Z,10.1
2019-05-10T00:32:58.690Z,9.8
2019-05-10T00:33:58.775Z,9.4
2019-05-10T00:34:58.871Z,10.2
2019-05-10T00:35:59.039Z,10.3
2019-05-10T00:36:59.117Z,9.2
2019-05-10T00:37:59.237Z,9.6
2019-05-10T00:38:59.362Z,9
2019-05-10T00:39:59.468Z,9.4
2019-05-10T00:41:00.584Z,9
2019-05-10T00:41:59.698Z,9.5
2019-05-10T00:42:59.776Z,9.1
2019-05-10T00:43:59.856Z,8.9
2019-05-10T00:44:59.978Z,9.2
2019-05-10T00:46:00.163Z,9.1
2019-05-10T00:47:00.082Z,9.7
2019-05-10T00:48:00.175Z,9.6
2019-05-10T00:49:00.363Z,10
2019-05-10T00:50:00.310Z,9.6
2019-05-10T00:51:00.510Z,9.6
2019-05-10T00:52:00.465Z,10.1
2019-05-10T00:53:00.587Z,10.4
2019-05-10T00:54:01.653Z,9.9
2019-05-10T01:16:02.761Z,10
2019-05-10T01:17:02.991Z,9.2
2019-05-10T01:18:02.936Z,9.2
2019-05-10T01:19:03.020Z,9.2
2019-05-10T01:20:04.136Z,9
2019-05-10T01:21:03.256Z,9.2
2019-05-10T01:22:03.412Z,8.7
2019-05-10T01:23:03.325Z,8.4
2019-05-10T01:24:03.424Z,8.5
2019-05-10T01:25:03.547Z,8.7
2019-05-10T01:26:03.704Z,8.5
2019-05-10T01:27:03.680Z,8.7
2019-05-10T01:28:03.805Z,8.7
2019-05-10T01:29:03.892Z,8.8
2019-05-10T01:30:03.992Z,8.9
2019-05-10T01:31:04.063Z,8.3
2019-05-10T01:32:04.184Z,8.5
2019-05-10T01:33:04.371Z,9.1
2019-05-10T01:34:04.309Z,8.5
2019-05-10T01:35:04.374Z,8.8
2019-05-10T01:36:04.457Z,8.7
2019-05-10T01:37:04.618Z,8.7
2019-05-10T01:38:04.755Z,8.3
2019-05-10T01:39:04.798Z,8.7
2019-05-10T01:40:04.780Z,8.5
2019-05-10T01:41:04.894Z,8.5
2019-05-10T01:42:04.976Z,7.8
2019-05-10T01:43:05.084Z,7.7
2019-05-10T01:44:05.196Z,7.8
2019-05-10T01:45:05.282Z,7.8
2019-05-10T01:46:05.374Z,7.4
2019-05-10T01:47:05.477Z,7.9
2019-05-10T01:48:05.631Z,7.4
2019-05-10T01:49:05.566Z,8
2019-05-10T01:50:05.660Z,7.3
2019-05-10T01:51:05.788Z,7.4
2019-05-10T01:52:05.878Z,7.3
2019-05-10T01:53:06.071Z,7.1
2019-05-10T01:54:06.065Z,7.2
2019-05-10T01:55:06.189Z,7.3
2019-05-10T01:56:06.291Z,8.1
2019-05-10T01:57:06.406Z,7.3
2019-05-10T01:58:06.565Z,7.5
2019-05-10T01:59:06.492Z,8.2
2019-05-10T02:00:06.573Z,7.2
2019-05-10T02:01:06.692Z,7.2
2019-05-10T02:02:06.771Z,7.3
2019-05-10T02:03:06.864Z,7.2
2019-05-10T02:04:06.949Z,7.9
2019-05-10T02:05:07.030Z,7.2
2019-05-10T02:06:07.150Z,7.8
2019-05-10T02:07:07.224Z,7.8
2019-05-10T02:08:07.378Z,7.4
2019-05-10T02:09:07.517Z,8
2019-05-10T02:10:07.625Z,8.2
2019-05-10T02:11:07.705Z,8.7
2019-05-10T02:12:07.785Z,8.5
2019-05-10T02:13:07.915Z,8.1
2019-05-10T02:14:08.007Z,7.7
2019-05-10T02:15:08.062Z,8.6
2019-05-10T02:16:08.196Z,8.5
2019-05-10T02:17:08.291Z,8.2
2019-05-10T02:18:08.456Z,7.7
2019-05-10T02:19:08.373Z,8.1
2019-05-10T02:20:08.468Z,8.2
2019-05-10T02:21:08.574Z,7.9
2019-05-10T02:22:08.659Z,7.6
2019-05-10T02:23:08.779Z,7.7
2019-05-10T02:24:08.867Z,7.7
2019-05-10T02:25:08.962Z,7.7
2019-05-10T02:26:10.039Z,7.6
2019-05-10T02:27:10.134Z,7.8
2019-05-10T02:28:09.293Z,7.5
2019-05-10T02:29:09.228Z,7.8
2019-05-10T02:30:09.292Z,7.5
2019-05-10T02:31:09.382Z,7.6
2019-05-10T02:32:09.404Z,7.4
2019-05-10T02:33:09.501Z,8.2
2019-05-10T02:34:09.639Z,7.8
2019-05-10T02:35:09.729Z,8.1
2019-05-10T02:36:09.801Z,8.3
2019-05-10T02:37:09.886Z,8.3
2019-05-10T02:38:09.975Z,8.4
2019-05-10T02:39:10.077Z,8.1
2019-05-10T02:40:10.225Z,7.9
2019-05-10T02:41:10.314Z,8
2019-05-10T02:42:10.410Z,7.8
2019-05-10T02:43:10.510Z,8
2019-05-10T02:44:10.647Z,8.1
2019-05-10T02:45:10.760Z,8.3
2019-05-10T02:46:10.839Z,8.3
2019-05-10T02:47:10.914Z,7.9
2019-05-10T02:48:10.988Z,8
2019-05-10T02:49:11.070Z,8.4
2019-05-10T02:50:11.087Z,8.2
2019-05-10T02:51:11.177Z,8.9
2019-05-10T02:52:11.202Z,7.6
2019-05-10T02:53:11.271Z,8.1
2019-05-10T02:54:12.364Z,8.1
2019-05-10T02:56:28.985Z,8.5
2019-05-10T02:57:11.544Z,8.5
2019-05-10T03:28:13.697Z,7.1
2019-05-10T03:29:13.776Z,7.2
2019-05-10T03:30:13.909Z,7.1
2019-05-10T03:31:13.952Z,7
2019-05-10T03:32:14.004Z,6.8
2019-05-10T03:33:14.062Z,7.2
2019-05-10T03:34:14.348Z,7.2
2019-05-10T03:35:14.259Z,7.2
2019-05-10T03:36:14.345Z,6.7
2019-05-10T03:37:14.448Z,6.9
2019-05-10T03:38:14.518Z,6.7
2019-05-10T03:39:14.603Z,7.3
2019-05-10T03:40:14.708Z,7.2
2019-05-10T03:41:14.780Z,7.3
2019-05-10T03:42:14.868Z,7.1
2019-05-10T03:43:14.949Z,7.6
2019-05-10T03:44:15.039Z,7.8
2019-05-10T03:45:15.109Z,7.8
2019-05-10T03:46:15.165Z,7.4
2019-05-10T03:47:15.255Z,7.8
2019-05-10T03:48:15.317Z,7.9
2019-05-10T03:49:15.385Z,8.2
2019-05-10T03:50:15.466Z,8.3
2019-05-10T03:51:15.627Z,8.3
2019-05-10T03:52:15.574Z,7.9
2019-05-10T03:53:15.645Z,8.5
2019-05-10T03:54:15.730Z,8.2
2019-05-10T03:55:15.803Z,8.5
2019-05-10T03:56:15.877Z,8.6
2019-05-10T03:57:15.926Z,8.5
2019-05-10T03:58:16.001Z,8.6
2019-05-10T03:59:16.105Z,8.5
2019-05-10T04:00:16.203Z,8.7
2019-05-10T04:01:16.281Z,8.4
2019-05-10T04:02:16.379Z,8.5
2019-05-10T04:03:16.454Z,8.7
2019-05-10T04:04:16.505Z,8.4
2019-05-10T04:05:16.593Z,8.4
2019-05-10T04:06:16.661Z,8.6
2019-05-10T04:07:16.761Z,8.8
2019-05-10T04:08:16.826Z,8.9
2019-05-10T04:09:16.887Z,9.4
2019-05-10T04:10:20.541Z,8.7
2019-05-10T04:11:17.017Z,9.3
2019-05-10T04:12:17.114Z,9.1
2019-05-10T04:13:17.183Z,8.9
2019-05-10T04:14:17.261Z,9
2019-05-10T04:15:17.339Z,8.9
2019-05-10T04:16:17.411Z,9
2019-05-10T04:17:17.547Z,8.9
2019-05-10T04:18:17.651Z,9.3
2019-05-10T04:19:17.766Z,9.3
2019-05-10T04:20:17.868Z,9.2
2019-05-10T04:21:18.013Z,10.1
2019-05-10T04:22:18.030Z,9.7
2019-05-10T04:23:18.110Z,9.5
2019-05-10T04:24:18.227Z,9.9
2019-05-10T04:25:18.411Z,11.2
2019-05-10T04:26:18.411Z,10.8
2019-05-10T04:27:31.103Z,12.4
2019-05-10T04:28:18.602Z,11.7
2019-05-10T04:29:18.607Z,11.9
2019-05-10T04:30:18.614Z,13.4
2019-05-10T04:31:18.626Z,13.9
2019-05-10T04:32:18.630Z,13.6
2019-05-10T04:33:18.685Z,13.3
2019-05-10T04:34:18.692Z,13.4
2019-05-10T04:35:18.709Z,13.8
2019-05-10T04:36:18.703Z,13.7
2019-05-10T04:37:18.719Z,14.1
2019-05-10T04:38:18.746Z,13.9
2019-05-10T04:39:18.749Z,14.7
2019-05-10T04:40:18.775Z,14.5
2019-05-10T04:41:18.769Z,15
2019-05-10T04:42:18.782Z,15.4
2019-05-10T04:43:18.810Z,15.1
2019-05-10T04:44:18.813Z,15.3
2019-05-10T04:45:18.826Z,15
2019-05-10T04:46:18.823Z,15.3
2019-05-10T04:47:18.861Z,15
2019-05-10T04:48:18.917Z,14.7
2019-05-10T04:49:18.973Z,14.6
2019-05-10T04:50:18.980Z,15.2
2019-05-10T04:51:19.000Z,15.9
2019-05-10T04:52:19.030Z,15.3
2019-05-10T04:53:19.086Z,15.1
2019-05-10T04:54:19.104Z,15.2
2019-05-10T04:55:19.152Z,15.3
2019-05-10T04:56:19.146Z,15.5
2019-05-10T04:57:19.166Z,15.5
2019-05-10T04:58:19.211Z,15.9
2019-05-10T04:59:19.243Z,15.9
2019-05-10T05:00:19.268Z,16.4
2019-05-10T05:01:19.269Z,16.700001
2019-05-10T05:02:22.001Z,16.4
2019-05-10T05:03:19.298Z,16.4
2019-05-10T05:04:19.334Z,17.6
2019-05-10T05:05:19.360Z,17.5
2019-05-10T05:06:19.388Z,16.799999
2019-05-10T05:07:19.375Z,17
2019-05-10T05:08:19.405Z,16.4
2019-05-10T05:09:19.459Z,16.5
2019-05-10T05:10:19.475Z,16.799999
2019-05-10T05:11:19.496Z,16.799999
2019-05-10T05:12:19.529Z,17.4
2019-05-10T05:13:19.562Z,17.1
2019-05-10T05:14:19.625Z,17.9
2019-05-10T05:15:19.646Z,17.6
2019-05-10T05:16:19.657Z,18.6
2019-05-10T05:17:19.686Z,17.9
2019-05-10T05:18:19.702Z,18.299999
2019-05-10T05:19:19.750Z,18.1
2019-05-10T05:20:19.779Z,18.799999
2019-05-10T05:21:19.796Z,18.700001
2019-05-10T05:22:19.813Z,19.200001
2019-05-10T05:23:19.821Z,19.9
2019-05-10T05:24:22.801Z,19.6
2019-05-10T05:25:21.982Z,19.9
2019-05-10T05:26:19.991Z,19.4
2019-05-10T05:27:20.004Z,19.6
2019-05-10T05:28:23.114Z,19.6
2019-05-10T05:29:20.070Z,19.6
2019-05-10T05:30:20.072Z,20.700001
2019-05-10T05:31:20.070Z,20.1
2019-05-10T05:32:20.067Z,20.9
2019-05-10T05:33:20.117Z,21.4
2019-05-10T05:34:20.203Z,20.9
2019-05-10T05:35:20.201Z,21.6
2019-05-10T05:36:20.210Z,21.200001
2019-05-10T05:37:20.221Z,22.799999
2019-05-10T05:38:20.312Z,22.6
2019-05-10T05:39:20.358Z,22.1
2019-05-10T05:40:20.396Z,22.799999
2019-05-10T05:41:20.424Z,22.799999
2019-05-10T05:42:22.188Z,22.9
2019-05-10T05:43:20.579Z,23.4
2019-05-10T05:44:25.896Z,23.5
2019-05-10T05:45:20.773Z,23.6
2019-05-10T05:46:20.804Z,23.5
2019-05-10T05:47:20.883Z,23.5
2019-05-10T05:48:21.549Z,24
2019-05-10T05:49:21.003Z,23
2019-05-10T05:50:21.066Z,24.200001
2019-05-10T05:51:21.084Z,24.4
2019-05-10T05:52:21.091Z,24.6
2019-05-10T05:53:22.457Z,23.799999
2019-05-10T05:54:22.617Z,24
2019-05-10T05:55:23.008Z,24.299999
2019-05-10T05:56:21.300Z,24.5
2019-05-10T05:57:22.098Z,23.700001
2019-05-10T05:58:26.387Z,23.200001
2019-05-10T05:59:23.588Z,23.1
2019-05-10T06:00:21.637Z,24.4
2019-05-10T06:32:22.661Z,13.5
2019-05-10T06:33:22.667Z,13.4
2019-05-10T06:34:22.686Z,13
2019-05-10T06:35:22.652Z,13.9
2019-05-10T06:36:22.877Z,13
2019-05-10T06:37:22.896Z,13.2
2019-05-10T06:38:22.908Z,13.2
2019-05-10T06:39:22.929Z,13
2019-05-10T06:40:32.285Z,13.1
2019-05-10T06:41:24.108Z,11.9
2019-05-10T06:42:23.160Z,12.6
2019-05-10T06:43:24.142Z,12
2019-05-10T06:45:24.349Z,12.4
2019-05-10T06:47:24.383Z,12.7
2019-05-10T06:49:24.426Z,11.4
2019-05-10T06:51:24.407Z,11.1
2019-05-10T06:53:24.457Z,10.7
2019-05-10T06:59:26.231Z,11.8
2019-05-10T07:00:23.862Z,12.3
2019-05-10T07:01:23.886Z,12.2
2019-05-10T07:02:26.109Z,11.4
2019-05-10T07:03:23.900Z,11.2
2019-05-10T07:04:23.911Z,11
2019-05-10T07:05:23.941Z,11.5
2019-05-10T07:06:23.991Z,9.5
2019-05-10T07:07:41.682Z,9.4
2019-05-10T07:08:24.002Z,9.5
2019-05-10T07:09:24.102Z,8.8
2019-05-10T07:10:25.328Z,8.7
2019-05-10T07:11:24.197Z,8.7
2019-05-10T07:12:24.239Z,8.9
2019-05-10T07:13:25.232Z,7.8
2019-05-10T07:14:27.080Z,8.3
2019-05-10T07:15:25.262Z,8
2019-05-10T07:16:25.981Z,8.7
2019-05-10T07:17:24.293Z,7.7
2019-05-10T07:18:24.341Z,7.1
2019-05-10T07:19:24.469Z,6.1
2019-05-10T07:20:29.344Z,6.2
2019-05-10T07:21:25.613Z,5.3
2019-05-10T07:22:26.741Z,4.9
2019-05-10T07:23:25.649Z,5
2019-05-10T07:24:27.066Z,5.2
2019-05-10T07:25:24.864Z,5.6
2019-05-10T07:26:26.665Z,5.2
2019-05-10T07:27:25.033Z,5.2
2019-05-10T07:28:25.054Z,5.6
2019-05-10T07:29:29.869Z,4.8
2019-05-10T07:30:25.209Z,4.8
2019-05-10T07:31:25.204Z,4.8
2019-05-10T07:32:25.174Z,4.5
2019-05-10T07:33:25.358Z,4.3
2019-05-10T07:34:25.403Z,4.4
2019-05-10T07:35:25.407Z,5
2019-05-10T07:36:28.835Z,5
2019-05-10T07:37:26.500Z,4.8
2019-05-10T07:38:30.632Z,4.6
2019-05-10T07:39:26.757Z,5.5
2019-05-10T07:40:25.922Z,5
2019-05-10T07:41:27.020Z,4.8
2019-05-10T07:42:26.887Z,4.1
2019-05-10T07:43:28.671Z,3.2
2019-05-10T07:44:26.904Z,2.7
2019-05-10T07:45:27.230Z,2.5
2019-05-10T07:46:26.048Z,2.6
2019-05-10T07:47:30.151Z,2.5
2019-05-10T07:48:27.223Z,2.8
2019-05-10T07:49:30.037Z,2.7
2019-05-10T07:50:26.239Z,3
2019-05-10T07:51:28.540Z,2.6
2019-05-10T07:52:26.413Z,3.1
2019-05-10T07:53:26.496Z,2.9
2019-05-10T07:54:26.520Z,3.1
2019-05-10T07:55:29.456Z,3.1
2019-05-10T07:56:27.516Z,3
2019-05-10T07:57:27.011Z,3
2019-05-10T07:58:26.655Z,2.9
2019-05-10T07:59:30.224Z,3
2019-05-10T08:00:26.793Z,3.2
2019-05-10T08:01:32.032Z,3.3
2019-05-10T08:02:26.951Z,3
2019-05-10T08:03:26.934Z,3.1
2019-05-10T08:04:31.783Z,3.2
2019-05-10T08:05:29.174Z,2.9
2019-05-10T08:06:31.821Z,3.1
2019-05-10T08:07:29.121Z,3.1
2019-05-10T08:08:29.356Z,3
2019-05-10T08:09:31.313Z,2.7
2019-05-10T08:10:28.918Z,2.8
2019-05-10T08:11:28.522Z,2.4
2019-05-10T08:12:28.809Z,2.6
2019-05-10T08:13:28.369Z,2.9
2019-05-10T08:14:28.949Z,2.5
2019-05-10T08:15:30.394Z,2.7
2019-05-10T08:16:28.997Z,2.6
2019-05-10T08:17:28.660Z,2.5
2019-05-10T08:18:29.278Z,2.3
2019-05-10T08:19:27.642Z,2.4
2019-05-10T08:20:41.270Z,2.5
2019-05-10T08:21:27.630Z,2.8
2019-05-10T08:22:32.659Z,2.9
2019-05-10T08:23:28.783Z,2.9
2019-05-10T08:24:27.913Z,3
2019-05-10T08:25:35.394Z,2.8
2019-05-10T08:26:28.093Z,2.7
2019-05-10T08:27:28.200Z,2.9
2019-05-10T08:28:33.848Z,2.8
2019-05-10T08:29:29.460Z,3.2
2019-05-10T08:30:29.481Z,3.3
2019-05-10T08:31:31.718Z,2.8
2019-05-10T08:32:30.472Z,2.9
2019-05-10T08:33:29.596Z,3.3
2019-05-10T08:35:29.724Z,3.2
2019-05-10T08:36:28.827Z,3.3
2019-05-10T08:37:34.195Z,3.3
2019-05-10T08:38:31.891Z,3.2
2019-05-10T08:39:32.743Z,3.1
2019-05-10T08:40:34.873Z,3.2
2019-05-10T08:41:32.387Z,2.8
2019-05-10T08:42:40.671Z,3.3
2019-05-10T08:43:38.652Z,3.1
2019-05-10T08:44:32.541Z,3.1
2019-05-10T08:45:29.583Z,3.1
2019-05-10T08:46:40.016Z,3.5
2019-05-10T08:47:32.262Z,3.4
2019-05-10T08:48:29.733Z,3.1
2019-05-10T08:49:40.955Z,3.2
2019-05-10T08:50:45.437Z,3
2019-05-10T08:51:32.250Z,3.3
2019-05-10T08:52:31.563Z,3
2019-05-10T08:53:30.150Z,3.1
2019-05-10T08:54:32.606Z,3.1
2019-05-10T08:55:32.060Z,3.5
2019-05-10T08:56:33.021Z,3.3
2019-05-10T08:57:34.670Z,3.4
2019-05-10T08:58:36.512Z,3
2019-05-10T08:59:33.784Z,3.5
2019-05-10T09:00:42.407Z,3
2019-05-10T09:01:38.730Z,3.5
2019-05-10T09:02:32.867Z,3.6
2019-05-10T09:03:32.195Z,3.5
2019-05-10T09:04:41.612Z,3.3
2019-05-10T09:05:31.948Z,3.7
2019-05-10T09:06:32.705Z,3.4
2019-05-10T09:07:34.835Z,3.5
2019-05-10T09:08:31.864Z,3.8
2019-05-10T09:09:33.629Z,3.7
2019-05-10T09:10:32.346Z,3.2
2019-05-10T09:11:32.729Z,3.3
2019-05-10T09:12:32.907Z,3.4
2019-05-10T09:13:34.566Z,3.4
2019-05-10T09:14:32.782Z,3.4
2019-05-10T09:15:33.023Z,3.2
2019-05-10T09:16:35.861Z,3.2
2019-05-10T09:17:32.418Z,3.1
2019-05-10T09:18:33.087Z,3.2
2019-05-10T09:19:37.101Z,3.3
2019-05-10T09:20:32.067Z,3.3
2019-05-10T09:21:32.270Z,3.4
2019-05-10T09:22:38.036Z,3.3
2019-05-10T09:23:32.693Z,3.5
2019-05-10T09:24:34.818Z,3.6
2019-05-10T09:25:33.784Z,3.5
2019-05-10T09:26:32.577Z,3.4
2019-05-10T09:27:33.382Z,3.5
2019-05-10T09:28:32.604Z,3.5
2019-05-10T09:29:37.157Z,3.6
2019-05-10T09:30:35.399Z,3.4
2019-05-10T09:31:32.899Z,3.6
2019-05-10T09:32:33.888Z,3.7
2019-05-10T09:33:33.075Z,3.9
2019-05-10T09:34:33.057Z,3.7
2019-05-10T09:35:33.213Z,4.2
2019-05-10T09:36:36.073Z,4.2
2019-05-10T09:39:34.358Z,4.4
2019-05-10T09:41:38.163Z,4
2019-05-10T09:43:34.846Z,4.3
2019-05-10T09:44:33.853Z,4.3
2019-05-10T09:45:33.855Z,4.1
2019-05-10T09:46:33.883Z,4.2
2019-05-10T09:47:33.880Z,4.3
2019-05-10T09:48:35.075Z,4.4
2019-05-10T09:49:34.079Z,4.2
2019-05-10T09:50:40.985Z,4.5
2019-05-10T09:51:34.059Z,4.5
2019-05-10T09:52:34.103Z,4.7
2019-05-10T09:53:34.146Z,4
2019-05-10T09:54:34.139Z,4.4
2019-05-10T09:55:34.153Z,4
2019-05-10T09:56:39.316Z,4.6
2019-05-10T09:57:34.309Z,4.6
2019-05-10T09:58:34.345Z,4.2
2019-05-10T09:59:34.352Z,3.9
2019-05-10T10:00:34.361Z,4.3
2019-05-10T10:01:34.349Z,4.3
2019-05-10T10:02:34.319Z,4
2019-05-10T10:03:39.606Z,4.2
2019-05-10T10:04:34.517Z,4.1
2019-05-10T10:05:34.577Z,4
2019-05-10T10:06:36.481Z,3.9
2019-05-10T10:07:34.596Z,3.9
2019-05-10T10:08:34.645Z,3
2019-05-10T10:09:42.131Z,3.1
2019-05-10T10:10:37.116Z,3.1
2019-05-10T10:11:34.787Z,3
2019-05-10T10:12:36.956Z,2.9
2019-05-10T10:13:40.708Z,3
2019-05-10T10:14:39.176Z,2.8
2019-05-10T10:15:37.013Z,3.1
2019-05-10T10:16:34.977Z,2.5
2019-05-10T10:17:38.396Z,2.1
2019-05-10T10:18:37.081Z,1.9
2019-05-10T10:19:37.547Z,1.8
2019-05-10T10:20:39.659Z,1.8
2019-05-10T10:21:38.109Z,1.7
2019-05-10T10:22:35.386Z,1.5
2019-05-10T10:23:37.680Z,1.5
2019-05-10T10:24:38.511Z,1.7
2019-05-10T10:25:40.438Z,1.5
2019-05-10T10:26:37.845Z,1.4
2019-05-10T10:28:39.448Z,1.3
2019-05-10T10:30:37.268Z,1.3
2019-05-10T10:31:46.403Z,1.2
2019-05-10T10:32:37.555Z,1.4
2019-05-10T10:33:37.893Z,1.4
2019-05-10T10:34:38.467Z,1.4
2019-05-10T10:35:37.739Z,1.3
2019-05-10T10:36:40.006Z,1.2
2019-05-10T10:37:37.834Z,1.3
2019-05-10T10:38:44.976Z,1.4
2019-05-10T10:39:37.208Z,1.2
2019-05-10T10:40:44.020Z,1.3
2019-05-10T10:41:38.070Z,1.2
2019-05-10T10:42:38.000Z,1.2
2019-05-10T10:43:37.303Z,1.4
2019-05-10T10:44:37.240Z,1.3
2019-05-10T10:45:37.748Z,1.5
2019-05-10T10:46:37.131Z,1.7
2019-05-10T10:47:38.035Z,1.4
2019-05-10T10:48:37.158Z,1.5
2019-05-10T10:49:37.760Z,1.5
2019-05-10T10:50:37.195Z,1.5
2019-05-10T10:51:37.887Z,1.4
2019-05-10T10:52:37.662Z,1.5
2019-05-10T10:53:37.181Z,1.4
2019-05-10T10:54:39.733Z,1.4
2019-05-10T10:55:40.109Z,1.4
2019-05-10T10:56:37.476Z,1.3
2019-05-10T10:57:37.464Z,1.2
2019-05-10T10:58:37.295Z,1.5
2019-05-10T10:59:37.526Z,1.3
2019-05-10T11:00:38.743Z,1.2
2019-05-10T11:01:47.037Z,1.3
2019-05-10T11:02:40.822Z,1.2
2019-05-10T11:03:37.670Z,1.4
2019-05-10T11:04:40.271Z,1.4
2019-05-10T11:05:37.907Z,1.5
2019-05-10T11:06:37.923Z,1.4
2019-05-10T11:07:39.209Z,1.3
2019-05-10T11:08:41.136Z,1.4
2019-05-10T11:09:40.724Z,1.5
2019-05-10T11:10:40.460Z,1.4
2019-05-10T11:11:41.142Z,1.4
2019-05-10T11:12:40.938Z,1.4
2019-05-10T11:13:43.743Z,1.6
2019-05-10T11:14:43.340Z,1.3
2019-05-10T11:15:38.665Z,1.3
2019-05-10T11:16:41.225Z,1.4
2019-05-10T11:17:40.707Z,1.4
2019-05-10T11:18:41.541Z,1.3
2019-05-10T11:19:41.698Z,1.5
2019-05-10T11:20:41.792Z,1.5
2019-05-10T11:21:41.453Z,1.8
2019-05-10T11:23:41.888Z,1.9
2019-05-10T11:26:40.982Z,1.9
2019-05-10T11:29:41.770Z,2.1
2019-05-10T11:30:39.692Z,1.8
2019-05-10T11:31:41.317Z,2.1
2019-05-10T11:32:41.764Z,1.8
2019-05-10T11:33:41.407Z,1.6
2019-05-10T11:34:39.712Z,1.9
2019-05-10T11:35:41.648Z,2.1
2019-05-10T11:36:40.376Z,2.2
2019-05-10T11:37:41.982Z,2
2019-05-10T11:38:41.948Z,2.1
2019-05-10T11:39:45.195Z,2
2019-05-10T11:40:41.835Z,2.1
2019-05-10T11:41:40.011Z,2.2
2019-05-10T11:42:43.397Z,2.1
2019-05-10T11:43:41.868Z,2
2019-05-10T11:44:41.279Z,2.1
2019-05-10T11:45:43.478Z,2
2019-05-10T11:46:41.595Z,2.5
2019-05-10T11:47:40.959Z,2.1
2019-05-10T11:48:42.108Z,2.1
2019-05-10T11:49:40.781Z,2.3
2019-05-10T11:50:41.034Z,2.2
2019-05-10T11:51:41.294Z,2.1
2019-05-10T11:52:40.899Z,2.2
2019-05-10T11:53:41.350Z,2.2
2019-05-10T11:54:41.651Z,2.3
2019-05-10T11:55:43.448Z,2.3
2019-05-10T11:56:41.224Z,2.4
2019-05-10T11:57:44.037Z,2.3
2019-05-10T11:58:45.787Z,2.3
2019-05-10T11:59:41.522Z,2.2
2019-05-10T12:00:41.495Z,2.5
2019-05-10T12:01:41.871Z,2.2
2019-05-10T12:03:00.640Z,2.3
2019-05-10T12:03:42.357Z,2.3
2019-05-10T12:04:43.301Z,2.3
2019-05-10T12:05:42.481Z,2.2
2019-05-10T12:06:49.850Z,2.4
2019-05-10T12:07:45.601Z,2.4
2019-05-10T12:08:41.904Z,2.6
2019-05-10T12:09:42.419Z,2.6
2019-05-10T12:10:52.256Z,2.6
2019-05-10T12:11:51.599Z,2.7
2019-05-10T12:12:53.355Z,2.6
2019-05-10T12:13:41.828Z,2.5
2019-05-10T12:14:43.608Z,2.7
2019-05-10T12:15:42.835Z,2.6
2019-05-10T12:16:42.258Z,2.6
2019-05-10T12:17:43.797Z,2.2
2019-05-10T12:18:46.110Z,2.7
2019-05-10T12:19:45.279Z,2.9
2019-05-10T12:20:54.655Z,2.6
2019-05-10T12:21:42.224Z,2.7
2019-05-10T12:22:47.249Z,2.6
2019-05-10T12:23:50.130Z,2.6
2019-05-10T12:24:53.641Z,2.5
2019-05-10T12:25:57.789Z,2.4
2019-05-10T12:27:48.625Z,2.7
2019-05-10T12:28:42.567Z,2.9
2019-05-10T12:29:46.471Z,3
2019-05-10T12:30:42.843Z,2.8
2019-05-10T12:31:47.332Z,2.9
2019-05-10T12:32:55.357Z,2.9
2019-05-10T12:33:45.266Z,2.9
2019-05-10T12:34:45.886Z,2.9
2019-05-10T12:35:47.191Z,2.9
2019-05-10T12:36:43.503Z,3.1
2019-05-10T12:37:45.995Z,3.1
2019-05-10T12:38:42.957Z,2.8
2019-05-10T12:39:43.006Z,3.2
2019-05-10T12:40:45.703Z,3
2019-05-10T12:41:47.700Z,2.9
2019-05-10T12:42:46.622Z,3.3
2019-05-10T12:43:43.557Z,3.2
2019-05-10T12:44:47.709Z,2.9
2019-05-10T12:45:43.371Z,3.6
2019-05-10T12:46:43.357Z,3.1
2019-05-10T12:47:43.547Z,2.9
2019-05-10T12:48:44.595Z,2.6
2019-05-10T12:49:43.610Z,3.1
2019-05-10T12:50:44.345Z,2.9
2019-05-10T12:51:43.725Z,3.1
2019-05-10T12:52:50.139Z,3.1
2019-05-10T12:53:49.021Z,3.2
2019-05-10T12:54:43.946Z,3.2
2019-05-10T12:55:44.008Z,3.1
2019-05-10T12:56:45.851Z,3.1
2019-05-10T12:57:44.174Z,2.9
2019-05-10T12:58:44.210Z,3.2
2019-05-10T12:59:44.283Z,2.9
2019-05-10T13:00:46.312Z,2.7
2019-05-10T13:01:44.298Z,2.7
2019-05-10T13:02:50.459Z,2.7
2019-05-10T13:03:44.339Z,2.8
2019-05-10T13:04:46.976Z,2.9
2019-05-10T13:05:52.328Z,3.1
2019-05-10T13:06:44.522Z,3.2
2019-05-10T13:07:44.536Z,3.4
2019-05-10T13:08:44.554Z,3.1
2019-05-10T13:09:44.706Z,3.1
2019-05-10T13:10:49.105Z,3
2019-05-10T13:11:45.701Z,3.2
2019-05-10T13:15:45.932Z,3.1
2019-05-10T13:18:51.629Z,3.4
2019-05-10T13:24:46.241Z,3.7
2019-05-10T13:25:45.247Z,3.5
2019-05-10T13:26:45.277Z,3.7
2019-05-10T13:27:45.318Z,3.6
2019-05-10T13:28:45.429Z,3.5
2019-05-10T13:29:46.427Z,3.6
2019-05-10T13:30:45.435Z,3.5
2019-05-10T13:31:45.429Z,3.5
2019-05-10T13:32:45.439Z,3.9
2019-05-10T13:33:45.408Z,3.2
2019-05-10T13:34:45.628Z,3.7
2019-05-10T13:35:50.614Z,3.6
2019-05-10T13:36:45.700Z,3.5
2019-05-10T13:37:45.756Z,3.4
2019-05-10T13:38:49.119Z,3.1
2019-05-10T13:39:45.767Z,3.8
2019-05-10T13:40:47.690Z,3.8
2019-05-10T13:41:45.825Z,4
2019-05-10T13:42:46.152Z,3.9
2019-05-10T13:43:45.990Z,3.6
2019-05-10T13:44:45.996Z,4.1
2019-05-10T13:45:46.070Z,3.7
2019-05-10T13:46:46.117Z,3.8
2019-05-10T13:47:46.125Z,4.3
2019-05-10T13:48:46.136Z,5.8
2019-05-10T13:49:48.756Z,6.5
2019-05-10T13:50:46.355Z,6.9
2019-05-10T13:51:46.393Z,6.7
2019-05-10T13:52:46.375Z,5.9
2019-05-10T13:53:46.586Z,4.6
2019-05-10T13:54:46.622Z,4.2
2019-05-10T13:55:46.658Z,3.6
2019-05-10T13:56:52.005Z,4.1
2019-05-10T13:57:46.691Z,3.6
2019-05-10T13:58:46.737Z,3.4
2019-05-10T13:59:48.711Z,3.5
2019-05-10T14:00:46.802Z,3.5
2019-05-10T14:01:49.392Z,3.5
2019-05-10T14:02:46.907Z,3.7
2019-05-10T14:03:53.818Z,3.5
2019-05-10T14:04:47.050Z,3.6
2019-05-10T14:05:47.057Z,3.3
2019-05-10T14:06:47.096Z,3.7
2019-05-10T14:07:51.433Z,3.8
2019-05-10T14:08:48.076Z,3.5
2019-05-10T14:09:47.137Z,3.3
2019-05-10T14:10:49.329Z,3.9
2019-05-10T14:11:47.222Z,3.9
2019-05-10T14:12:47.185Z,3.7
2019-05-10T14:13:47.171Z,3.6
2019-05-10T14:14:47.254Z,3.9
2019-05-10T14:15:47.280Z,4.1
2019-05-10T14:16:47.340Z,3.8
2019-05-10T14:17:47.385Z,3.7
2019-05-10T14:18:47.407Z,4.1
2019-05-10T14:19:47.646Z,3.9
2019-05-10T14:20:47.468Z,4.3
2019-05-10T14:21:47.550Z,4.3
2019-05-10T14:22:55.296Z,3.8
2019-05-10T14:23:47.569Z,3.4
2019-05-10T14:24:52.793Z,3.7
2019-05-10T14:25:47.632Z,3.7
2019-05-10T14:26:51.300Z,3.6
2019-05-10T14:27:47.771Z,3.8
2019-05-10T14:28:52.890Z,3.7
2019-05-10T14:29:47.929Z,3.6
2019-05-10T14:30:56.387Z,4.7
2019-05-10T14:31:47.965Z,5.2
2019-05-10T14:32:48.007Z,5.1
2019-05-10T14:34:13.995Z,5.4
2019-05-10T14:34:48.038Z,5.6
2019-05-10T14:35:48.058Z,5.8
2019-05-10T14:36:48.088Z,5.8
2019-05-10T14:37:48.427Z,6
2019-05-10T14:38:53.575Z,5.6
2019-05-10T14:39:48.168Z,5.7
2019-05-10T14:40:48.198Z,5.4
2019-05-10T14:41:50.661Z,5.4
2019-05-10T14:42:48.440Z,5.4
2019-05-10T14:43:48.451Z,5.5
2019-05-10T14:44:48.475Z,5.1
2019-05-10T14:45:48.496Z,5.2
2019-05-10T14:46:48.562Z,4.4
2019-05-10T14:47:50.456Z,4.7
2019-05-10T14:48:48.777Z,4.5
2019-05-10T14:49:48.822Z,4.3
2019-05-10T14:50:48.742Z,4.1
2019-05-10T14:51:58.101Z,4.3
2019-05-10T14:52:48.951Z,4.2
2019-05-10T14:53:48.988Z,4.3
2019-05-10T14:54:49.652Z,4.6
2019-05-10T14:55:49.170Z,4.6
2019-05-10T14:56:49.190Z,4.2
2019-05-10T14:57:49.277Z,4.5
2019-05-10T14:58:49.347Z,3.8
2019-05-10T14:59:49.346Z,4.2
2019-05-10T15:00:49.357Z,3.9
2019-05-10T15:01:49.391Z,3.6
2019-05-10T15:02:49.405Z,3.8
2019-05-10T15:03:49.437Z,3.9
2019-05-10T15:04:49.431Z,3.8
2019-05-10T15:05:54.869Z,4.1
2019-05-10T15:06:49.613Z,3.9
2019-05-10T15:07:51.136Z,4.1
2019-05-10T15:08:49.682Z,4.4
2019-05-10T15:09:54.134Z,4.4
2019-05-10T15:10:49.717Z,4.2
2019-05-10T15:11:49.753Z,4.6
2019-05-10T15:12:49.794Z,4.2
2019-05-10T15:13:49.859Z,4.3
2019-05-10T15:14:49.885Z,4.3
2019-05-10T15:15:49.909Z,4.6
2019-05-10T15:16:49.931Z,4.6
2019-05-10T15:17:54.868Z,4.4
2019-05-10T15:18:49.975Z,4.4
2019-05-10T15:19:57.191Z,4.4
2019-05-10T15:20:49.991Z,4.5
2019-05-10T15:21:50.011Z,4.7
2019-05-10T15:22:50.057Z,4.6
2019-05-10T15:23:50.142Z,4.7
2019-05-10T15:24:50.359Z,5
2019-05-10T15:25:56.904Z,5.1
2019-05-10T15:26:50.303Z,4.9
2019-05-10T15:27:54.585Z,4.3
2019-05-10T15:28:50.343Z,4.9
2019-05-10T15:29:50.367Z,4.8
2019-05-10T15:30:52.569Z,4.7
2019-05-10T15:31:50.615Z,4.8
2019-05-10T15:32:50.636Z,5.2
2019-05-10T15:33:50.722Z,5.2
2019-05-10T15:35:04.880Z,4.9
2019-05-10T15:35:51.609Z,5.2
2019-05-10T15:36:50.927Z,4.9
2019-05-10T15:37:50.920Z,5.3
2019-05-10T15:38:52.249Z,5.4